Time;durP1;ratioP1;P1;durP2;ratioP2;P2;SDS_P1;SDS_P2;PMS_P1;PMS_P2;Temp;Humidity;BMP_temperature;BMP_pressure;BME280_temperature;BME280_humidity;BME280_pressure;Samples;Min_cycle;Max_cycle;Signal;HPM_P1;HPM_P2
2023/10/06 00:02:58;;;;;;;1.25;1.05;;;;;;;;;;5054165;28;20044;-76
2023/10/06 00:05:25;;;;;;;1.40;1.20;;;;;;;;;;5056519;28;20029;-75
2023/10/06 00:07:51;;;;;;;1.50;1.00;;;;;;;;;;5058139;28;20033;-76
2023/10/06 00:10:21;;;;;;;1.50;1.05;;;;;;;;;;5039220;28;20022;-77
2023/10/06 00:12:50;;;;;;;0.98;0.70;;;;;;;;;;5048905;22;20073;-78
2023/10/06 00:15:26;;;;;;;1.23;0.98;;;;;;;;;;5029266;28;20030;-79
2023/10/06 00:17:59;;;;;;;1.35;0.85;;;;;;;;;;5030217;28;20033;-79
2023/10/06 00:20:38;;;;;;;1.25;1.00;;;;;;;;;;5034710;28;20033;-78
2023/10/06 00:23:06;;;;;;;1.20;1.10;;;;;;;;;;5025241;28;20371;-79
2023/10/06 00:25:35;;;;;;;0.73;0.70;;;;;;;;;;5040343;28;20245;-79
2023/10/06 00:28:03;;;;;;;2.05;1.15;;;;;;;;;;5039247;28;20048;-79
2023/10/06 00:30:31;;;;;;;1.35;1.25;;;;;;;;;;5023271;28;20018;-79
2023/10/06 00:32:57;;;;;;;1.95;1.35;;;;;;;;;;5001970;28;20395;-79
2023/10/06 00:35:30;;;;;;;2.45;1.35;;;;;;;;;;5002014;28;20037;-79
2023/10/06 00:38:12;;;;;;;2.78;1.65;;;;;;;;;;5020476;28;20022;-80
2023/10/06 00:40:39;;;;;;;3.13;1.60;;;;;;;;;;5036917;28;20043;-79
2023/10/06 00:43:08;;;;;;;2.33;1.25;;;;;;;;;;5037242;28;20321;-79
2023/10/06 00:45:39;;;;;;;2.30;1.75;;;;;;;;;;5020350;28;20334;-78
2023/10/06 00:48:13;;;;;;;1.85;1.25;;;;;;;;;;5019421;28;20425;-79
2023/10/06 00:50:40;;;;;;;2.22;1.35;;;;;;;;;;5019382;28;20017;-78
2023/10/06 00:53:07;;;;;;;2.03;1.35;;;;;;;;;;5019752;28;20026;-78
2023/10/06 00:55:33;;;;;;;1.35;1.20;;;;;;;;;;5039584;28;20052;-79
2023/10/06 00:57:59;;;;;;;1.40;1.17;;;;;;;;;;5038187;28;20034;-78
2023/10/06 01:00:26;;;;;;;2.97;1.52;;;;;;;;;;5037535;28;20021;-78
2023/10/06 01:02:52;;;;;;;1.90;1.50;;;;;;;;;;5037843;28;20112;-78
2023/10/06 01:05:21;;;;;;;2.05;1.38;;;;;;;;;;5004939;28;20097;-79
2023/10/06 01:07:49;;;;;;;2.25;1.65;;;;;;;;;;5019609;28;20092;-78
2023/10/06 01:10:18;;;;;;;3.05;1.85;;;;;;;;;;5018949;28;20082;-79
2023/10/06 01:12:50;;;;;;;1.92;1.45;;;;;;;;;;5002716;28;20088;-79
2023/10/06 01:15:18;;;;;;;2.33;1.70;;;;;;;;;;5021054;28;20032;-79
2023/10/06 01:17:45;;;;;;;2.70;1.58;;;;;;;;;;5026485;28;20040;-79
2023/10/06 01:20:41;;;;;;;2.38;1.77;;;;;;;;;;5042729;28;20018;-78
2023/10/06 01:23:17;;;;;;;3.22;1.77;;;;;;;;;;5023634;28;20029;-79
2023/10/06 01:25:46;;;;;;;2.00;1.60;;;;;;;;;;5021311;28;20531;-78
2023/10/06 01:28:12;;;;;;;2.38;2.03;;;;;;;;;;5017404;28;20122;-79
2023/10/06 01:30:39;;;;;;;2.63;1.60;;;;;;;;;;5025451;28;20022;-78
2023/10/06 01:33:05;;;;;;;2.05;1.42;;;;;;;;;;5020896;28;20164;-78
2023/10/06 01:35:34;;;;;;;3.42;2.15;;;;;;;;;;5030135;28;20018;-78
2023/10/06 01:38:00;;;;;;;2.92;1.90;;;;;;;;;;5025736;28;20030;-78
2023/10/06 01:42:53;;;;;;;2.13;1.33;;;;;;;;;;5019943;28;20038;-78
2023/10/06 01:45:23;;;;;;;2.28;1.90;;;;;;;;;;5020799;28;20030;-79
2023/10/06 01:48:22;;;;;;;3.22;1.65;;;;;;;;;;5020658;28;20082;-78
2023/10/06 01:50:48;;;;;;;3.63;2.00;;;;;;;;;;5000682;28;20330;-79
2023/10/06 01:53:18;;;;;;;3.45;1.83;;;;;;;;;;5020828;28;20089;-79
2023/10/06 01:55:49;;;;;;;1.52;1.30;;;;;;;;;;5019817;28;20065;-79
2023/10/06 01:58:15;;;;;;;1.60;1.30;;;;;;;;;;5020325;28;20033;-78
2023/10/06 02:00:41;;;;;;;1.75;1.55;;;;;;;;;;5019745;28;20120;-78
2023/10/06 02:03:10;;;;;;;1.92;1.52;;;;;;;;;;5018500;28;20364;-78
2023/10/06 02:05:39;;;;;;;3.65;2.10;;;;;;;;;;5001563;28;20090;-78
2023/10/06 02:08:09;;;;;;;1.70;1.38;;;;;;;;;;5019859;28;20091;-78
2023/10/06 02:10:36;;;;;;;2.20;1.73;;;;;;;;;;5020346;28;20014;-79
2023/10/06 02:13:04;;;;;;;2.30;1.60;;;;;;;;;;5019414;28;20022;-79
2023/10/06 02:15:32;;;;;;;1.52;1.15;;;;;;;;;;5001868;28;20029;-80
2023/10/06 02:17:58;;;;;;;2.63;1.50;;;;;;;;;;5037960;28;20030;-80
2023/10/06 02:22:53;;;;;;;2.40;1.55;;;;;;;;;;5039411;28;20026;-78
2023/10/06 02:25:23;;;;;;;2.28;1.52;;;;;;;;;;5040407;28;20492;-78
2023/10/06 02:27:50;;;;;;;2.33;1.17;;;;;;;;;;5021585;28;20040;-78
2023/10/06 02:30:19;;;;;;;1.33;1.23;;;;;;;;;;5020388;28;20093;-79
2023/10/06 02:32:45;;;;;;;1.55;1.40;;;;;;;;;;4999988;28;20384;-77
2023/10/06 02:35:17;;;;;;;2.63;1.80;;;;;;;;;;5015505;28;20109;-78
2023/10/06 02:37:45;;;;;;;1.77;1.33;;;;;;;;;;5026294;28;20037;-78
2023/10/06 02:40:11;;;;;;;1.85;1.27;;;;;;;;;;5018932;28;20053;-78
2023/10/06 02:42:45;;;;;;;2.40;1.35;;;;;;;;;;5036734;28;20081;-78
2023/10/06 02:45:20;;;;;;;2.90;1.60;;;;;;;;;;5018577;28;20025;-78
2023/10/06 02:47:49;;;;;;;1.88;1.10;;;;;;;;;;5027157;28;20033;-78
2023/10/06 02:50:19;;;;;;;1.45;1.35;;;;;;;;;;5016373;28;20029;-78
2023/10/06 02:52:46;;;;;;;2.20;1.40;;;;;;;;;;4999134;28;20034;-78
2023/10/06 02:55:13;;;;;;;2.25;1.60;;;;;;;;;;5016599;28;20045;-78
2023/10/06 02:57:50;;;;;;;2.28;1.48;;;;;;;;;;5020013;28;20104;-82
2023/10/06 03:00:32;;;;;;;2.05;1.50;;;;;;;;;;5018175;28;20084;-78
2023/10/06 03:03:03;;;;;;;2.08;1.52;;;;;;;;;;5018040;28;20032;-79
2023/10/06 03:05:32;;;;;;;1.77;1.30;;;;;;;;;;5037898;28;20025;-78
2023/10/06 03:08:00;;;;;;;2.58;1.50;;;;;;;;;;5032215;28;20022;-79
2023/10/06 03:10:27;;;;;;;2.13;1.58;;;;;;;;;;5024739;28;20280;-79
2023/10/06 03:12:57;;;;;;;3.42;1.60;;;;;;;;;;5037214;28;20057;-79
2023/10/06 03:15:35;;;;;;;1.33;1.05;;;;;;;;;;5037655;28;20037;-79
2023/10/06 03:18:03;;;;;;;2.42;1.33;;;;;;;;;;5037427;28;20036;-79
2023/10/06 03:20:40;;;;;;;3.25;1.63;;;;;;;;;;5020316;28;20392;-79
2023/10/06 03:23:24;;;;;;;2.75;1.73;;;;;;;;;;5036829;28;20029;-79
2023/10/06 03:25:53;;;;;;;1.52;1.38;;;;;;;;;;5036640;28;20047;-79
2023/10/06 03:28:19;;;;;;;1.73;1.27;;;;;;;;;;5020912;28;20034;-79
2023/10/06 03:30:49;;;;;;;1.58;1.38;;;;;;;;;;5021246;28;20077;-78
2023/10/06 03:33:17;;;;;;;1.90;1.20;;;;;;;;;;5018864;28;20531;-79
2023/10/06 03:35:47;;;;;;;2.25;1.75;;;;;;;;;;5019252;28;20152;-78
2023/10/06 03:41:07;;;;;;;;;;;;;;;;;;5038635;28;20034;-78
2023/10/06 03:43:36;;;;;;;2.95;2.10;;;;;;;;;;5040062;28;19905;-79
2023/10/06 03:46:03;;;;;;;3.40;1.40;;;;;;;;;;5040071;28;20100;-78
2023/10/06 03:48:29;;;;;;;1.95;1.50;;;;;;;;;;5022092;28;20097;-79
2023/10/06 03:50:56;;;;;;;2.40;1.55;;;;;;;;;;5022976;28;20045;-78
2023/10/06 03:53:28;;;;;;;2.50;1.42;;;;;;;;;;5039417;28;20021;-79
2023/10/06 03:55:56;;;;;;;2.53;1.65;;;;;;;;;;5040210;28;20032;-79
2023/10/06 03:58:27;;;;;;;2.08;1.58;;;;;;;;;;5041236;28;20059;-79
2023/10/06 04:00:53;;;;;;;1.90;1.13;;;;;;;;;;5040822;28;20153;-79
2023/10/06 04:03:19;;;;;;;3.22;1.73;;;;;;;;;;5024800;28;20037;-79
2023/10/06 04:05:48;;;;;;;3.10;1.90;;;;;;;;;;5047524;28;20048;-78
2023/10/06 04:08:16;;;;;;;3.13;1.67;;;;;;;;;;5047224;28;20018;-78
2023/10/06 04:10:42;;;;;;;2.72;1.48;;;;;;;;;;5036011;28;20029;-78
2023/10/06 04:13:12;;;;;;;1.83;1.48;;;;;;;;;;5024224;28;20048;-77
2023/10/06 04:15:38;;;;;;;1.98;1.30;;;;;;;;;;5027032;28;20080;-78
2023/10/06 04:18:11;;;;;;;2.05;1.60;;;;;;;;;;5027785;28;20026;-78
2023/10/06 04:20:43;;;;;;;2.08;1.70;;;;;;;;;;5019976;28;20072;-79
2023/10/06 04:23:11;;;;;;;1.42;1.10;;;;;;;;;;5001648;28;20056;-79
2023/10/06 04:25:38;;;;;;;1.55;1.15;;;;;;;;;;5020481;28;20033;-78
2023/10/06 04:28:14;;;;;;;1.90;1.15;;;;;;;;;;5025487;28;20083;-78
2023/10/06 04:30:43;;;;;;;2.08;1.60;;;;;;;;;;5000999;28;20193;-79
2023/10/06 04:33:10;;;;;;;3.03;1.70;;;;;;;;;;4982717;28;20449;-78
2023/10/06 04:35:40;;;;;;;1.58;1.15;;;;;;;;;;5003901;28;20029;-78
2023/10/06 04:38:06;;;;;;;1.73;1.30;;;;;;;;;;4984945;28;20026;-79
2023/10/06 04:40:32;;;;;;;1.10;1.00;;;;;;;;;;5003054;28;20041;-79
2023/10/06 04:42:59;;;;;;;2.08;1.38;;;;;;;;;;5001775;28;20102;-79
2023/10/06 04:45:26;;;;;;;2.67;1.48;;;;;;;;;;5030369;28;20052;-78
2023/10/06 04:47:55;;;;;;;2.03;1.30;;;;;;;;;;5040267;28;20041;-79
2023/10/06 04:50:22;;;;;;;1.40;1.00;;;;;;;;;;5023027;28;20044;-79
2023/10/06 04:52:48;;;;;;;1.60;1.15;;;;;;;;;;5039796;28;20026;-78
2023/10/06 04:55:19;;;;;;;1.40;1.20;;;;;;;;;;5038297;28;20022;-79
2023/10/06 04:57:47;;;;;;;1.25;0.90;;;;;;;;;;5039946;28;20021;-79
2023/10/06 05:00:15;;;;;;;2.35;1.38;;;;;;;;;;5021045;28;20030;-80
2023/10/06 05:02:44;;;;;;;1.83;1.33;;;;;;;;;;5037409;28;20026;-78
2023/10/06 05:05:35;;;;;;;1.65;1.40;;;;;;;;;;5030299;28;20045;-79
2023/10/06 05:08:02;;;;;;;1.52;1.42;;;;;;;;;;5019115;28;20022;-79
2023/10/06 05:10:30;;;;;;;2.08;1.30;;;;;;;;;;5019552;28;20022;-79
2023/10/06 05:12:56;;;;;;;2.00;1.40;;;;;;;;;;5019668;28;20088;-79
2023/10/06 05:15:31;;;;;;;1.55;1.30;;;;;;;;;;5023121;28;20013;-78
2023/10/06 05:17:58;;;;;;;2.70;1.42;;;;;;;;;;5013332;28;20549;-79
2023/10/06 05:20:29;;;;;;;1.85;1.35;;;;;;;;;;5000513;28;20030;-78
2023/10/06 05:23:14;;;;;;;2.80;1.25;;;;;;;;;;5020720;28;20017;-78
2023/10/06 05:25:46;;;;;;;2.88;1.60;;;;;;;;;;5020328;28;20097;-79
2023/10/06 05:28:16;;;;;;;1.90;1.40;;;;;;;;;;5027797;28;20092;-78
2023/10/06 05:30:42;;;;;;;2.03;1.48;;;;;;;;;;5020618;28;20455;-79
2023/10/06 05:33:09;;;;;;;2.92;1.38;;;;;;;;;;5039045;28;20036;-79
2023/10/06 05:35:39;;;;;;;1.65;1.30;;;;;;;;;;5037496;28;20024;-79
2023/10/06 05:38:08;;;;;;;2.38;1.60;;;;;;;;;;5021138;28;20022;-79
2023/10/06 05:40:34;;;;;;;1.35;1.17;;;;;;;;;;5002045;28;20029;-79
2023/10/06 05:43:01;;;;;;;2.80;1.17;;;;;;;;;;5020641;28;20117;-78
2023/10/06 05:45:29;;;;;;;2.38;1.73;;;;;;;;;;5021733;28;20168;-78
2023/10/06 05:47:58;;;;;;;2.65;1.75;;;;;;;;;;5021933;28;20027;-78
2023/10/06 05:50:28;;;;;;;2.15;1.60;;;;;;;;;;5031887;28;20093;-79
2023/10/06 05:53:12;;;;;;;1.38;1.10;;;;;;;;;;5038984;28;20033;-78
2023/10/06 05:55:41;;;;;;;2.28;1.45;;;;;;;;;;5040890;28;20083;-78
2023/10/06 05:58:19;;;;;;;2.28;1.25;;;;;;;;;;5025064;28;20120;-78
2023/10/06 06:01:20;;;;;;;1.52;1.20;;;;;;;;;;5020185;28;20022;-79
2023/10/06 06:03:47;;;;;;;1.55;1.20;;;;;;;;;;5014960;28;20030;-79
2023/10/06 06:06:22;;;;;;;2.13;1.38;;;;;;;;;;5019167;28;20034;-79
2023/10/06 06:08:48;;;;;;;2.20;1.40;;;;;;;;;;5018661;28;20037;-79
2023/10/06 06:11:14;;;;;;;1.38;1.20;;;;;;;;;;5018109;28;20456;-79
2023/10/06 06:13:40;;;;;;;2.10;1.35;;;;;;;;;;5019381;28;20049;-79
2023/10/06 06:16:06;;;;;;;1.42;1.10;;;;;;;;;;5019085;28;20117;-78
2023/10/06 06:18:33;;;;;;;1.75;1.20;;;;;;;;;;5018243;28;20069;-79
2023/10/06 06:21:02;;;;;;;0.95;0.95;;;;;;;;;;5016927;28;20154;-77
2023/10/06 06:23:29;;;;;;;1.23;0.90;;;;;;;;;;4999680;28;20117;-78
2023/10/06 06:25:55;;;;;;;1.20;1.05;;;;;;;;;;5018511;28;20051;-79
2023/10/06 06:28:21;;;;;;;1.00;0.90;;;;;;;;;;5018462;28;20069;-78
2023/10/06 06:30:50;;;;;;;2.00;1.40;;;;;;;;;;5036858;28;20026;-80
2023/10/06 06:33:22;;;;;;;1.77;1.13;;;;;;;;;;5018704;28;20025;-79
2023/10/06 06:35:48;;;;;;;;;;;;;;;;;;5036673;28;20017;-78
2023/10/06 06:38:14;;;;;;;1.95;1.33;;;;;;;;;;5022599;28;19964;-79
2023/10/06 06:40:41;;;;;;;1.48;1.20;;;;;;;;;;5025750;28;20025;-79
2023/10/06 06:43:09;;;;;;;1.15;1.02;;;;;;;;;;5040753;28;20037;-79
2023/10/06 06:45:39;;;;;;;1.77;1.00;;;;;;;;;;5021918;28;20036;-80
2023/10/06 06:48:10;;;;;;;1.27;0.95;;;;;;;;;;5029177;28;20029;-80
2023/10/06 06:50:37;;;;;;;1.77;1.10;;;;;;;;;;5019163;28;20461;-79
2023/10/06 06:53:04;;;;;;;2.00;1.23;;;;;;;;;;5018653;28;20396;-80
2023/10/06 06:55:30;;;;;;;2.72;1.77;;;;;;;;;;5018531;28;20029;-79
2023/10/06 06:58:00;;;;;;;2.53;1.77;;;;;;;;;;5006956;28;20029;-78
2023/10/06 07:00:26;;;;;;;2.58;1.67;;;;;;;;;;5020162;28;20026;-78
2023/10/06 07:02:54;;;;;;;3.40;2.10;;;;;;;;;;5041377;28;20041;-80
2023/10/06 07:05:23;;;;;;;4.55;2.05;;;;;;;;;;5053465;28;20028;-78
2023/10/06 07:07:53;;;;;;;3.28;2.03;;;;;;;;;;5051592;28;20025;-78
2023/10/06 07:10:20;;;;;;;3.55;1.88;;;;;;;;;;5013619;28;20030;-79
2023/10/06 07:12:50;;;;;;;2.58;1.70;;;;;;;;;;5020835;28;20089;-79
2023/10/06 07:15:19;;;;;;;2.83;1.80;;;;;;;;;;5002706;28;20066;-79
2023/10/06 07:17:47;;;;;;;2.70;1.70;;;;;;;;;;5019565;28;20029;-80
2023/10/06 07:20:14;;;;;;;3.67;1.90;;;;;;;;;;5039353;28;20146;-78
2023/10/06 07:22:41;;;;;;;2.05;1.30;;;;;;;;;;5022162;28;20030;-79
2023/10/06 07:25:10;;;;;;;2.00;1.50;;;;;;;;;;5023390;28;20091;-79
2023/10/06 07:27:36;;;;;;;2.42;1.70;;;;;;;;;;5023251;28;20484;-80
2023/10/06 07:30:04;;;;;;;1.98;1.77;;;;;;;;;;5040734;28;20080;-80
2023/10/06 07:32:31;;;;;;;1.85;1.73;;;;;;;;;;5004158;28;20097;-79
2023/10/06 07:34:57;;;;;;;2.08;1.60;;;;;;;;;;5022514;28;20021;-78
2023/10/06 07:37:23;;;;;;;2.47;1.52;;;;;;;;;;5006156;28;20393;-78
2023/10/06 07:39:49;;;;;;;1.40;1.20;;;;;;;;;;5021749;28;20021;-79
2023/10/06 07:42:16;;;;;;;2.22;1.25;;;;;;;;;;5019437;28;20091;-79
2023/10/06 07:44:43;;;;;;;1.67;1.58;;;;;;;;;;5018907;28;20151;-78
2023/10/06 07:47:09;;;;;;;1.65;1.23;;;;;;;;;;5019580;28;20124;-79
2023/10/06 07:49:35;;;;;;;1.50;1.10;;;;;;;;;;5025203;28;20029;-79
2023/10/06 07:52:04;;;;;;;1.35;1.25;;;;;;;;;;5039391;28;20399;-78
2023/10/06 07:54:32;;;;;;;2.10;1.42;;;;;;;;;;5038882;28;20100;-79
2023/10/06 07:56:58;;;;;;;1.83;1.48;;;;;;;;;;5017922;28;20069;-79
2023/10/06 07:59:25;;;;;;;3.10;1.88;;;;;;;;;;5019186;28;20022;-79
2023/10/06 08:01:53;;;;;;;2.38;1.75;;;;;;;;;;5015630;28;20113;-78
2023/10/06 08:04:19;;;;;;;3.58;1.88;;;;;;;;;;5017358;28;20014;-78
2023/10/06 08:06:46;;;;;;;2.33;1.52;;;;;;;;;;5019683;28;20030;-79
2023/10/06 08:09:12;;;;;;;2.13;1.55;;;;;;;;;;5001480;28;20057;-78
2023/10/06 08:11:39;;;;;;;2.78;1.88;;;;;;;;;;5033677;28;20144;-79
2023/10/06 08:14:06;;;;;;;3.90;2.25;;;;;;;;;;5041808;28;20388;-79
2023/10/06 08:16:33;;;;;;;3.60;2.08;;;;;;;;;;5041746;28;20018;-78
2023/10/06 08:19:00;;;;;;;2.50;1.92;;;;;;;;;;5041952;28;20022;-79
2023/10/06 08:21:26;;;;;;;5.05;2.42;;;;;;;;;;5031166;28;20569;-79
2023/10/06 08:23:52;;;;;;;3.03;2.13;;;;;;;;;;5021561;28;20033;-79
2023/10/06 08:26:18;;;;;;;2.33;1.70;;;;;;;;;;5020630;28;20392;-79
2023/10/06 08:28:45;;;;;;;2.17;1.80;;;;;;;;;;5021179;28;20049;-78
2023/10/06 08:31:17;;;;;;;2.45;1.60;;;;;;;;;;5005928;28;20079;-78
2023/10/06 08:33:45;;;;;;;1.60;1.20;;;;;;;;;;5029799;28;20091;-78
2023/10/06 08:36:11;;;;;;;2.60;1.60;;;;;;;;;;5040607;28;20017;-77
2023/10/06 08:38:38;;;;;;;3.60;2.35;;;;;;;;;;5038756;28;20128;-79
2023/10/06 08:41:04;;;;;;;2.92;1.58;;;;;;;;;;5040077;28;20029;-79
2023/10/06 08:43:32;;;;;;;1.48;1.38;;;;;;;;;;5039488;28;20021;-78
2023/10/06 08:46:01;;;;;;;1.65;1.55;;;;;;;;;;5039170;28;20125;-78
2023/10/06 08:48:35;;;;;;;1.83;1.67;;;;;;;;;;5039750;28;20123;-79
2023/10/06 08:51:07;;;;;;;2.33;1.52;;;;;;;;;;5022147;28;20107;-78
2023/10/06 08:53:37;;;;;;;2.45;1.80;;;;;;;;;;5001516;28;20038;-80
2023/10/06 08:56:03;;;;;;;2.38;1.90;;;;;;;;;;4999420;28;20022;-79
2023/10/06 08:58:29;;;;;;;1.77;1.58;;;;;;;;;;4998840;28;20100;-80
2023/10/06 09:00:56;;;;;;;2.33;2.13;;;;;;;;;;4999248;28;20050;-78
2023/10/06 09:03:22;;;;;;;1.85;1.52;;;;;;;;;;5031051;28;20032;-79
2023/10/06 09:05:50;;;;;;;2.05;1.52;;;;;;;;;;5038652;28;20409;-79
2023/10/06 09:08:17;;;;;;;2.17;1.85;;;;;;;;;;5039411;28;20115;-78
2023/10/06 09:10:54;;;;;;;2.45;1.75;;;;;;;;;;5039834;28;20025;-79
2023/10/06 09:13:21;;;;;;;2.05;1.30;;;;;;;;;;5025849;28;20025;-79
2023/10/06 09:15:59;;;;;;;1.60;1.50;;;;;;;;;;5020833;28;20022;-79
2023/10/06 09:18:29;;;;;;;2.17;1.73;;;;;;;;;;5021827;28;20460;-79
2023/10/06 09:21:00;;;;;;;2.40;1.80;;;;;;;;;;5021938;28;20052;-79
2023/10/06 09:23:30;;;;;;;2.95;1.98;;;;;;;;;;5029651;28;20052;-80
2023/10/06 09:25:57;;;;;;;1.80;1.58;;;;;;;;;;5025802;28;20029;-79
2023/10/06 09:28:23;;;;;;;2.67;1.92;;;;;;;;;;5020585;28;20026;-79
2023/10/06 09:30:51;;;;;;;1.45;1.35;;;;;;;;;;5022573;28;20083;-79
2023/10/06 09:33:18;;;;;;;1.65;1.50;;;;;;;;;;5021797;28;20022;-79
2023/10/06 09:35:44;;;;;;;3.15;2.13;;;;;;;;;;5022266;28;20042;-79
2023/10/06 09:38:13;;;;;;;2.47;1.90;;;;;;;;;;5041195;28;20109;-79
2023/10/06 09:40:43;;;;;;;1.90;1.73;;;;;;;;;;5038937;28;20464;-78
2023/10/06 09:43:12;;;;;;;2.22;1.48;;;;;;;;;;5038096;28;20022;-78
2023/10/06 09:45:41;;;;;;;1.67;1.50;;;;;;;;;;5020548;28;20026;-79
2023/10/06 09:48:13;;;;;;;1.23;1.13;;;;;;;;;;5023225;28;20017;-79
2023/10/06 09:50:41;;;;;;;2.50;1.55;;;;;;;;;;5023586;28;20032;-78
2023/10/06 09:53:12;;;;;;;4.03;1.73;;;;;;;;;;5020285;28;20021;-80
2023/10/06 09:55:40;;;;;;;1.60;1.50;;;;;;;;;;5000756;28;20026;-79
2023/10/06 09:58:06;;;;;;;2.40;1.70;;;;;;;;;;5001374;28;20023;-79
2023/10/06 10:00:35;;;;;;;3.45;1.60;;;;;;;;;;5001290;28;20082;-79
2023/10/06 10:03:01;;;;;;;2.78;2.03;;;;;;;;;;5001367;28;20029;-79
2023/10/06 10:05:29;;;;;;;2.10;1.67;;;;;;;;;;5037127;28;20026;-79
2023/10/06 10:07:55;;;;;;;2.33;1.73;;;;;;;;;;5043689;28;20028;-79
2023/10/06 10:10:27;;;;;;;1.70;1.60;;;;;;;;;;5049475;28;20075;-79
2023/10/06 10:12:56;;;;;;;3.10;2.35;;;;;;;;;;5032796;28;20021;-79
2023/10/06 10:15:41;;;;;;;4.93;3.47;;;;;;;;;;5047899;28;20041;-79
2023/10/06 10:18:25;;;;;;;4.82;2.85;;;;;;;;;;5045969;28;20081;-79
2023/10/06 10:20:52;;;;;;;3.40;2.53;;;;;;;;;;5048256;28;20074;-79
2023/10/06 10:23:19;;;;;;;3.95;2.17;;;;;;;;;;5053345;28;20010;-78
2023/10/06 10:25:45;;;;;;;4.95;2.70;;;;;;;;;;5039938;28;20029;-78
2023/10/06 10:28:14;;;;;;;7.22;3.58;;;;;;;;;;5028205;28;20036;-79
2023/10/06 10:30:56;;;;;;;3.92;2.65;;;;;;;;;;5018164;28;20107;-78
2023/10/06 10:33:28;;;;;;;4.80;2.97;;;;;;;;;;5024097;28;20052;-78
2023/10/06 10:36:12;;;;;;;3.20;2.25;;;;;;;;;;5036933;28;20029;-78
2023/10/06 10:38:38;;;;;;;3.30;2.58;;;;;;;;;;5040470;28;20074;-78
2023/10/06 10:41:08;;;;;;;3.58;2.33;;;;;;;;;;5021842;28;20021;-79
2023/10/06 10:43:53;;;;;;;2.75;2.17;;;;;;;;;;5037070;28;20237;-79
2023/10/06 10:46:31;;;;;;;2.75;2.05;;;;;;;;;;5008495;28;20030;-79
2023/10/06 10:49:01;;;;;;;2.97;2.10;;;;;;;;;;5001193;28;20061;-79
2023/10/06 10:51:33;;;;;;;2.70;1.88;;;;;;;;;;5000838;28;20396;-79
2023/10/06 10:54:00;;;;;;;5.70;2.88;;;;;;;;;;5018527;28;20029;-78
2023/10/06 10:56:34;;;;;;;3.25;2.38;;;;;;;;;;5027960;28;20032;-80
2023/10/06 10:59:00;;;;;;;3.78;2.40;;;;;;;;;;5019549;28;20045;-78
2023/10/06 11:01:27;;;;;;;3.78;2.47;;;;;;;;;;5036321;28;20026;-79
2023/10/06 11:04:18;;;;;;;3.22;2.42;;;;;;;;;;5037446;28;20025;-78
2023/10/06 11:06:44;;;;;;;4.30;2.55;;;;;;;;;;5031054;28;20137;-79
2023/10/06 11:09:26;;;;;;;2.72;2.33;;;;;;;;;;5031985;28;20040;-79
2023/10/06 11:12:05;;;;;;;2.70;2.25;;;;;;;;;;5028169;28;20468;-78
2023/10/06 11:14:31;;;;;;;3.35;2.30;;;;;;;;;;5033054;28;20025;-79
2023/10/06 11:17:03;;;;;;;2.97;2.30;;;;;;;;;;5039031;28;20029;-79
2023/10/06 11:19:30;;;;;;;;;;;;;;;;;;5038773;28;20025;-79
2023/10/06 11:21:57;;;;;;;3.42;2.50;;;;;;;;;;5038651;28;19905;-78
2023/10/06 11:24:27;;;;;;;3.45;2.38;;;;;;;;;;5038146;28;20029;-78
2023/10/06 11:26:53;;;;;;;4.60;2.53;;;;;;;;;;5039019;28;20438;-79
2023/10/06 11:29:29;;;;;;;3.80;2.35;;;;;;;;;;5038076;28;20079;-79
2023/10/06 11:31:57;;;;;;;4.53;2.90;;;;;;;;;;5038441;28;20392;-79
2023/10/06 11:34:24;;;;;;;3.72;2.45;;;;;;;;;;5036692;28;20108;-79
2023/10/06 11:36:53;;;;;;;4.00;2.25;;;;;;;;;;5039181;28;20026;-78
2023/10/06 11:39:23;;;;;;;2.15;1.92;;;;;;;;;;5038966;28;20017;-78
2023/10/06 11:41:50;;;;;;;2.40;2.00;;;;;;;;;;5039562;28;20040;-78
2023/10/06 11:44:16;;;;;;;2.25;2.05;;;;;;;;;;5033423;28;20182;-78
2023/10/06 11:46:49;;;;;;;1.90;1.63;;;;;;;;;;5018959;28;20022;-77
2023/10/06 11:49:19;;;;;;;2.35;1.83;;;;;;;;;;5022691;28;20026;-79
2023/10/06 11:51:45;;;;;;;1.60;1.50;;;;;;;;;;5030844;28;20006;-77
2023/10/06 11:54:11;;;;;;;2.17;1.92;;;;;;;;;;5037288;28;20026;-78
2023/10/06 11:56:51;;;;;;;2.30;1.70;;;;;;;;;;5056954;28;20021;-77
2023/10/06 11:59:22;;;;;;;4.57;2.50;;;;;;;;;;5056292;28;20112;-78
2023/10/06 12:01:48;;;;;;;3.00;2.30;;;;;;;;;;5028257;28;20066;-78
2023/10/06 12:04:30;;;;;;;2.83;2.10;;;;;;;;;;5042093;28;20026;-78
2023/10/06 12:06:56;;;;;;;2.30;1.90;;;;;;;;;;5041863;28;20048;-79
2023/10/06 12:09:23;;;;;;;1.88;1.65;;;;;;;;;;5041878;28;20044;-79
2023/10/06 12:11:50;;;;;;;2.15;1.60;;;;;;;;;;5024742;28;20041;-78
2023/10/06 12:14:16;;;;;;;2.25;1.65;;;;;;;;;;5023958;28;20041;-79
2023/10/06 12:16:44;;;;;;;2.42;1.77;;;;;;;;;;5005959;28;20022;-77
2023/10/06 12:19:11;;;;;;;2.42;1.60;;;;;;;;;;5040379;28;20492;-79
2023/10/06 12:21:37;;;;;;;2.03;1.80;;;;;;;;;;5042089;28;20064;-79
2023/10/06 12:24:03;;;;;;;1.92;1.63;;;;;;;;;;5023706;28;20125;-79
2023/10/06 12:26:30;;;;;;;2.90;2.10;;;;;;;;;;5028298;28;20485;-79
2023/10/06 12:28:58;;;;;;;2.78;2.10;;;;;;;;;;5020347;28;20018;-79
2023/10/06 12:31:24;;;;;;;3.55;2.65;;;;;;;;;;5020391;28;20037;-78
2023/10/06 12:33:55;;;;;;;3.28;2.38;;;;;;;;;;5020436;28;20022;-78
2023/10/06 12:36:21;;;;;;;2.65;2.00;;;;;;;;;;5028751;28;20092;-78
2023/10/06 12:38:47;;;;;;;3.38;2.45;;;;;;;;;;5040782;28;20439;-78
2023/10/06 12:41:13;;;;;;;2.67;2.35;;;;;;;;;;5040241;28;20488;-78
2023/10/06 12:43:40;;;;;;;2.55;2.30;;;;;;;;;;5038702;28;20037;-77
2023/10/06 12:46:08;;;;;;;2.35;2.10;;;;;;;;;;5035660;28;20149;-78
2023/10/06 12:48:38;;;;;;;2.75;2.03;;;;;;;;;;5002169;28;20030;-78
2023/10/06 12:51:11;;;;;;;2.00;1.80;;;;;;;;;;5001639;28;20022;-78
2023/10/06 12:53:39;;;;;;;3.70;2.60;;;;;;;;;;5019538;28;20041;-78
2023/10/06 12:56:05;;;;;;;4.40;2.72;;;;;;;;;;5021235;28;20018;-78
2023/10/06 12:58:31;;;;;;;4.30;2.50;;;;;;;;;;5003671;28;20033;-79
2023/10/06 13:00:57;;;;;;;3.60;2.53;;;;;;;;;;5020199;28;20083;-79
2023/10/06 13:03:25;;;;;;;3.90;2.30;;;;;;;;;;5023310;28;20509;-78
2023/10/06 13:05:51;;;;;;;2.63;2.38;;;;;;;;;;5040597;28;20041;-80
2023/10/06 13:08:21;;;;;;;3.85;2.60;;;;;;;;;;5039395;28;20029;-79
2023/10/06 13:10:49;;;;;;;2.95;2.35;;;;;;;;;;5040477;28;20533;-79
2023/10/06 13:13:16;;;;;;;1.98;1.83;;;;;;;;;;5039786;28;20029;-78
2023/10/06 13:15:42;;;;;;;2.78;1.98;;;;;;;;;;5039380;28;20566;-78
2023/10/06 13:18:08;;;;;;;4.05;2.42;;;;;;;;;;5039244;28;20037;-78
2023/10/06 13:20:35;;;;;;;3.35;2.47;;;;;;;;;;5039187;28;20021;-79
2023/10/06 13:23:04;;;;;;;3.20;2.00;;;;;;;;;;5021774;28;20029;-78
2023/10/06 13:25:31;;;;;;;5.30;2.90;;;;;;;;;;5021352;28;20052;-78
2023/10/06 13:27:58;;;;;;;2.92;2.28;;;;;;;;;;5039373;28;20026;-79
2023/10/06 13:30:24;;;;;;;2.85;2.40;;;;;;;;;;5021830;28;20574;-79
2023/10/06 13:32:57;;;;;;;3.83;2.67;;;;;;;;;;5020734;28;20033;-80
2023/10/06 13:35:24;;;;;;;4.35;2.92;;;;;;;;;;5038987;28;20067;-79
2023/10/06 13:37:50;;;;;;;4.03;3.00;;;;;;;;;;5039701;28;20036;-78
2023/10/06 13:40:17;;;;;;;3.28;2.67;;;;;;;;;;5034680;28;20074;-78
2023/10/06 13:42:47;;;;;;;4.15;2.88;;;;;;;;;;5021339;28;20120;-79
2023/10/06 13:45:17;;;;;;;3.40;2.40;;;;;;;;;;5020189;28;20033;-78
2023/10/06 13:47:52;;;;;;;3.28;2.45;;;;;;;;;;5018457;28;20048;-79
2023/10/06 13:50:18;;;;;;;2.67;2.25;;;;;;;;;;5020040;28;20038;-78
2023/10/06 13:52:46;;;;;;;2.90;2.17;;;;;;;;;;5001165;28;20075;-79
2023/10/06 13:55:12;;;;;;;2.35;1.90;;;;;;;;;;5029679;28;20005;-77
2023/10/06 13:57:42;;;;;;;2.67;2.40;;;;;;;;;;5016659;28;20073;-77
2023/10/06 14:00:13;;;;;;;3.17;2.13;;;;;;;;;;5036237;28;20033;-79
2023/10/06 14:02:41;;;;;;;3.78;2.80;;;;;;;;;;5021688;28;20514;-79
2023/10/06 14:05:07;;;;;;;2.45;2.13;;;;;;;;;;5038896;28;20028;-79
2023/10/06 14:07:34;;;;;;;3.53;2.83;;;;;;;;;;5038822;28;20060;-79
2023/10/06 14:10:00;;;;;;;3.95;2.58;;;;;;;;;;5007494;28;20421;-78
2023/10/06 14:12:29;;;;;;;3.10;2.20;;;;;;;;;;5017512;28;20030;-78
2023/10/06 14:14:59;;;;;;;3.38;2.38;;;;;;;;;;5019569;28;20026;-78
2023/10/06 14:17:32;;;;;;;3.40;2.33;;;;;;;;;;5003397;28;20178;-79
2023/10/06 14:19:58;;;;;;;3.80;2.42;;;;;;;;;;5031476;28;20030;-79
2023/10/06 14:22:30;;;;;;;2.97;2.25;;;;;;;;;;5047482;28;20033;-78
2023/10/06 14:24:56;;;;;;;3.15;2.30;;;;;;;;;;5052488;28;20029;-78
2023/10/06 14:27:22;;;;;;;2.65;2.10;;;;;;;;;;5053240;28;20041;-79
2023/10/06 14:29:49;;;;;;;3.40;2.38;;;;;;;;;;5028199;28;20113;-78
2023/10/06 14:32:27;;;;;;;3.78;3.25;;;;;;;;;;5028794;28;20057;-79
2023/10/06 14:35:12;;;;;;;5.75;3.22;;;;;;;;;;5028374;28;20186;-78
2023/10/06 14:37:53;;;;;;;6.25;3.80;;;;;;;;;;5017463;28;20018;-78
2023/10/06 14:46:01;;;;;;;5.63;3.35;;;;;;;;;;5021742;28;20036;-79
2023/10/06 14:48:29;;;;;;;5.78;3.00;;;;;;;;;;5002208;28;20041;-79
2023/10/06 14:50:56;;;;;;;7.03;3.42;;;;;;;;;;5018454;28;20080;-79
2023/10/06 14:53:25;;;;;;;4.68;2.70;;;;;;;;;;5017676;28;20108;-81
2023/10/06 14:55:51;;;;;;;3.95;2.70;;;;;;;;;;5023399;28;20018;-79
2023/10/06 14:58:17;;;;;;;5.40;3.00;;;;;;;;;;5018520;28;20255;-79
2023/10/06 15:00:43;;;;;;;5.78;3.10;;;;;;;;;;5021226;28;20057;-79
2023/10/06 15:03:09;;;;;;;5.30;3.13;;;;;;;;;;5037111;28;20022;-78
2023/10/06 15:05:36;;;;;;;4.68;2.50;;;;;;;;;;5017766;28;20044;-78
2023/10/06 15:08:03;;;;;;;3.00;2.35;;;;;;;;;;5037242;28;20018;-79
2023/10/06 15:10:29;;;;;;;4.78;2.45;;;;;;;;;;5020202;28;20017;-79